Home   Weather   Germany   Calw   Past weeks
Flag for Germany

Past Weather in Calw, Baden-Württemberg, Germany — Yesterday and Last 2 Weeks

Currently: 45 °F. Clear. (Weather station: Stuttgart-Echterdingen, Germany). See more current weather

Past Weather in Calw — Graph

°F

Calw Temperature Yesterday

Maximum temperature yesterday: 70 °F (at 3:50 pm)
Minimum temperature yesterday: 36 °F (at 5:50 am)
Average temperature yesterday: 50 °F

High & Low Weather Summary for the Past Weeks

 TemperatureHumidityPressure
High70 °F (Feb 25, 3:50 pm)100% (Feb 11, 10:50 pm)30.63 "Hg (Feb 11, 10:50 pm)
Low7 °F (Feb 11, 3:50 am)31% (Feb 25, 4:50 pm)29.89 "Hg (Feb 18, 5:50 pm)
Average37 °F74%30.28 "Hg
* Reported Feb 11 1:20 am — Feb 26 1:20 am, Calw. Weather by CustomWeather, © 2021

Note: Actual official high and low records may vary slightly from our data, if they occured in-between our weather recording intervals... More about our weather records

Calw Weather History for the Previous 24 Hours

Scroll right to see more
 ConditionsComfort  
Time TempWeatherWind HumidityBarometerVisibility
1:20 am
Fri, Feb 26
41 °FPassing clouds.3 mph70%30.42 "HgN/A
12:50 am41 °FClear.3 mph76%30.39 "Hg10 mi
12:20 am41 °FClear.2 mph76%30.39 "Hg10 mi
11:50 pm
Thu, Feb 25
39 °FClear.2 mph81%30.39 "Hg10 mi
11:20 pm43 °FClear.6 mph81%30.39 "Hg10 mi
10:50 pm43 °FClear.5 mph81%30.39 "Hg10 mi
10:20 pm43 °FClear.6 mph81%30.39 "Hg10 mi
9:50 pm45 °FClear.6 mph81%30.39 "Hg10 mi
9:20 pm48 °FClear.6 mph71%30.39 "Hg10 mi
8:50 pm48 °FClear.8 mph71%30.36 "Hg10 mi
8:20 pm46 °FPassing clouds.3 mph71%30.36 "HgN/A
7:50 pm50 °FClear.2 mph67%30.36 "Hg10 mi
7:20 pm50 °FPassing clouds.3 mph67%30.36 "HgN/A
6:50 pm54 °FClear.3 mph58%30.36 "Hg10 mi
6:20 pm57 °FPassing clouds.3 mph55%30.36 "HgN/A
5:50 pm61 °FSunny.6 mph52%30.36 "Hg10 mi
4:50 pm70 °FSunny.1 mph31%30.33 "Hg10 mi
4:20 pm68 °FSunny.2 mph38%30.33 "Hg10 mi
3:50 pm70 °FPassing clouds.3 mph35%30.33 "HgN/A
3:20 pm68 °FPassing clouds.5 mph35%30.33 "HgN/A
2:50 pm68 °FPassing clouds.5 mph40%30.36 "HgN/A
2:20 pm68 °FPassing clouds.7 mph40%30.36 "HgN/A
1:50 pm66 °FPassing clouds.6 mph43%30.36 "HgN/A
1:20 pm64 °FPassing clouds.3 mph49%30.39 "HgN/A
12:50 pm63 °FPassing clouds.3 mph52%30.39 "HgN/A
12:20 pm61 °FPassing clouds.3 mph55%30.42 "HgN/A
11:50 am59 °FSunny.2 mph59%30.42 "Hg10 mi
11:20 am57 °FSunny.2 mph59%30.42 "Hg10 mi
10:50 am54 °FSunny.2 mph67%30.42 "Hg10 mi
10:20 am50 °FSunny.1 mph71%30.42 "Hg10 mi
9:50 am48 °FSunny.1 mph71%30.42 "Hg10 mi
9:20 am45 °FSunny.1 mph76%30.42 "Hg10 mi
8:50 am43 °FSunny.2 mph81%30.42 "Hg10 mi
8:20 am39 °FSunny.1 mph87%30.42 "Hg10 mi
7:50 am37 °FSunny.1 mph93%30.42 "Hg10 mi
7:20 am36 °FSunny.2 mph93%30.42 "Hg10 mi
6:50 am36 °FClear.3 mph93%30.42 "Hg10 mi
6:20 am36 °FClear.2 mph100%30.42 "Hg10 mi
5:50 am36 °FClear.2 mph93%30.42 "Hg10 mi
4:50 am37 °FClear.3 mph93%30.42 "Hg10 mi
4:20 am39 °FClear.5 mph87%30.42 "Hg10 mi
3:50 am39 °FClear.2 mph87%30.42 "Hg10 mi
3:20 am41 °FClear.1 mph87%30.42 "Hg10 mi
2:50 am41 °FClear.1 mph87%30.42 "Hg10 mi
2:20 am43 °FClear.2 mph81%30.42 "Hg10 mi
Weather by CustomWeather, © 2021

See weather overview